Time;durP1;ratioP1;P1;durP2;ratioP2;P2;SDS_P1;SDS_P2;PMS_P1;PMS_P2;Temp;Humidity;BMP_temperature;BMP_pressure;BME280_temperature;BME280_humidity;BME280_pressure;Samples;Min_cycle;Max_cycle;Signal;HPM_P1;HPM_P2
2021/11/19 00:00:22;;;;;;;;;;;;;;;;;;5083142;28;19959;-85
2021/11/19 00:02:48;;;;;;;;;;;;;;;;;;5080747;28;19947;-84
2021/11/19 00:05:14;;;;;;;;;;;;;;;;;;5079092;28;20609;-84
2021/11/19 00:07:39;;;;;;;;;;;;;;;;;;5080245;28;20756;-84
2021/11/19 00:10:05;;;;;;;;;;;;;;;;;;5080916;28;19916;-83
2021/11/19 00:12:31;;;;;;;;;;;;;;;;;;5080944;28;19912;-89
2021/11/19 00:14:57;;;;;;;;;;;;;;;;;;5083226;28;19994;-87
2021/11/19 00:17:23;;;;;;;;;;;;;;;;;;5082234;28;19908;-88
2021/11/19 00:19:49;;;;;;;;;;;;;;;;;;5084587;28;19997;-89
2021/11/19 00:22:15;;;;;;;;;;;;;;;;;;5083496;28;20019;-88
2021/11/19 00:24:41;;;;;;;;;;;;;;;;;;5083011;28;19912;-89
2021/11/19 00:27:07;;;;;;;;;;;;;;;;;;5084630;28;19911;-88
2021/11/19 00:29:33;;;;;;;;;;;;;;;;;;5086407;28;20802;-89
2021/11/19 00:31:59;;;;;;;;;;;;;;;;;;5089067;28;19916;-89
2021/11/19 00:34:25;;;;;;;;;;;;;;;;;;5089031;28;19922;-92
2021/11/19 00:36:55;;;;;;;;;;;;;;;;;;5092219;28;19915;-91
2021/11/19 00:39:21;;;;;;;;;;;;;;;;;;5096393;28;20386;-91
2021/11/19 00:41:47;;;;;;;;;;;;;;;;;;5090759;28;19911;-91
2021/11/19 00:44:13;;;;;;;;;;;;;;;;;;5091779;28;19916;-91
2021/11/19 00:46:39;;;;;;;;;;;;;;;;;;5094664;28;19919;-91
2021/11/19 00:49:04;;;;;;;;;;;;;;;;;;5088597;28;19915;-91
2021/11/19 00:51:30;;;;;;;;;;;;;;;;;;5093507;28;19919;-90
2021/11/19 00:53:56;;;;;;;;;;;;;;;;;;5092331;28;19986;-90
2021/11/19 00:56:22;;;;;;;;;;;;;;;;;;5088501;28;19994;-94
2021/11/19 00:58:48;;;;;;;;;;;;;;;;;;5089978;28;20488;-90
2021/11/19 01:01:14;;;;;;;;;;;;;;;;;;5088705;28;20044;-87
2021/11/19 01:03:40;;;;;;;;;;;;;;;;;;5087216;28;20375;-88
2021/11/19 01:06:06;;;;;;;;;;;;;;;;;;5104371;28;19919;-88
2021/11/19 01:08:32;;;;;;;;;;;;;;;;;;5087014;28;19926;-87
2021/11/19 01:10:58;;;;;;;;;;;;;;;;;;5086665;28;19919;-82
2021/11/19 01:13:23;;;;;;;;;;;;;;;;;;5085017;28;20449;-81
2021/11/19 01:15:49;;;;;;;;;;;;;;;;;;5083795;28;19928;-81
2021/11/19 01:18:15;;;;;;;;;;;;;;;;;;5088955;28;19912;-81
2021/11/19 01:20:42;;;;;;;;;;;;;;;;;;5086524;28;19911;-82
2021/11/19 01:23:11;;;;;;;;;;;;;;;;;;5085443;28;19926;-87
2021/11/19 01:25:37;;;;;;;;;;;;;;;;;;5085550;28;19967;-85
2021/11/19 01:28:03;;;;;;;;;;;;;;;;;;5083879;28;20431;-84
2021/11/19 01:30:29;;;;;;;;;;;;;;;;;;5089633;28;19911;-83
2021/11/19 01:32:55;;;;;;;;;;;;;;;;;;5083842;28;19919;-86
2021/11/19 01:35:21;;;;;;;;;;;;;;;;;;5085494;28;20071;-84
2021/11/19 01:37:47;;;;;;;;;;;;;;;;;;5086594;28;20536;-84
2021/11/19 01:40:13;;;;;;;;;;;;;;;;;;5083715;28;19919;-84
2021/11/19 01:42:38;;;;;;;;;;;;;;;;;;5085414;28;19911;-88
2021/11/19 01:45:05;;;;;;;;;;;;;;;;;;5084793;28;19915;-86
2021/11/19 01:47:31;;;;;;;;;;;;;;;;;;5086895;28;20370;-88
2021/11/19 01:49:57;;;;;;;;;;;;;;;;;;5083724;28;19973;-86
2021/11/19 01:52:23;;;;;;;;;;;;;;;;;;5084491;28;20009;-86
2021/11/19 01:54:49;;;;;;;;;;;;;;;;;;5084139;28;20276;-86
2021/11/19 01:57:15;;;;;;;;;;;;;;;;;;5083616;28;19930;-86
2021/11/19 01:59:41;;;;;;;;;;;;;;;;;;5083574;28;19950;-86
2021/11/19 02:02:07;;;;;;;;;;;;;;;;;;5082091;28;19916;-86
2021/11/19 02:04:33;;;;;;;;;;;;;;;;;;5082324;28;20540;-86
2021/11/19 02:06:59;;;;;;;;;;;;;;;;;;5084134;28;20390;-86
2021/11/19 02:09:25;;;;;;;;;;;;;;;;;;5083513;28;19928;-86
2021/11/19 02:11:51;;;;;;;;;;;;;;;;;;5083158;28;19908;-86
2021/11/19 02:14:17;;;;;;;;;;;;;;;;;;5084947;28;20394;-84
2021/11/19 02:16:43;;;;;;;;;;;;;;;;;;5083202;28;19912;-85
2021/11/19 02:19:08;;;;;;;;;;;;;;;;;;5084387;28;19916;-86
2021/11/19 02:21:34;;;;;;;;;;;;;;;;;;5085321;28;19993;-85
2021/11/19 02:24:00;;;;;;;;;;;;;;;;;;5083421;28;19955;-85
2021/11/19 02:26:26;;;;;;;;;;;;;;;;;;5084639;28;19916;-85
2021/11/19 02:28:52;;;;;;;;;;;;;;;;;;5083099;28;19923;-86
2021/11/19 02:31:18;;;;;;;;;;;;;;;;;;5082860;28;19940;-85
2021/11/19 02:33:44;;;;;;;;;;;;;;;;;;5081449;28;20454;-84
2021/11/19 02:36:10;;;;;;;;;;;;;;;;;;5083459;28;19934;-84
2021/11/19 02:38:36;;;;;;;;;;;;;;;;;;5083068;28;19943;-85
2021/11/19 02:41:02;;;;;;;;;;;;;;;;;;5082632;28;19915;-85
2021/11/19 02:43:28;;;;;;;;;;;;;;;;;;5080913;28;19919;-85
2021/11/19 02:45:54;;;;;;;;;;;;;;;;;;5082740;28;19916;-85
2021/11/19 02:48:20;;;;;;;;;;;;;;;;;;5081191;28;20446;-83
2021/11/19 02:50:46;;;;;;;;;;;;;;;;;;5080997;28;19923;-85
2021/11/19 02:53:12;;;;;;;;;;;;;;;;;;5080474;28;19923;-83
2021/11/19 02:55:38;;;;;;;;;;;;;;;;;;5082833;28;19923;-83
2021/11/19 02:58:04;;;;;;;;;;;;;;;;;;5082224;28;19923;-85
2021/11/19 03:00:29;;;;;;;;;;;;;;;;;;5080482;28;19923;-83
2021/11/19 03:02:55;;;;;;;;;;;;;;;;;;5080255;28;19919;-84
2021/11/19 03:05:21;;;;;;;;;;;;;;;;;;5079116;28;19923;-85
2021/11/19 03:07:47;;;;;;;;;;;;;;;;;;5081532;28;19916;-85
2021/11/19 03:10:13;;;;;;;;;;;;;;;;;;5080938;28;19923;-84
2021/11/19 03:12:39;;;;;;;;;;;;;;;;;;5084240;28;19912;-85
2021/11/19 03:15:05;;;;;;;;;;;;;;;;;;5081425;28;19912;-86
2021/11/19 03:17:31;;;;;;;;;;;;;;;;;;5081065;28;19958;-86
2021/11/19 03:19:57;;;;;;;;;;;;;;;;;;5084705;28;20006;-86
2021/11/19 03:22:23;;;;;;;;;;;;;;;;;;5085022;28;19919;-86
2021/11/19 03:24:49;;;;;;;;;;;;;;;;;;5083636;28;20394;-86
2021/11/19 03:27:15;;;;;;;;;;;;;;;;;;5083573;28;20011;-86
2021/11/19 03:29:40;;;;;;;;;;;;;;;;;;5085053;28;19948;-87
2021/11/19 03:32:06;;;;;;;;;;;;;;;;;;5086717;28;19908;-87
2021/11/19 03:34:32;;;;;;;;;;;;;;;;;;5085451;28;19912;-87
2021/11/19 03:36:58;;;;;;;;;;;;;;;;;;5086732;28;20381;-89
2021/11/19 03:39:25;;;;;;;;;;;;;;;;;;5087998;28;20003;-88
2021/11/19 03:41:51;;;;;;;;;;;;;;;;;;5085516;28;19911;-86
2021/11/19 03:44:16;;;;;;;;;;;;;;;;;;5083688;28;19923;-87
2021/11/19 03:46:42;;;;;;;;;;;;;;;;;;5082206;28;19935;-86
2021/11/19 03:49:08;;;;;;;;;;;;;;;;;;5087875;28;19916;-90
2021/11/19 03:51:34;;;;;;;;;;;;;;;;;;5088107;28;20002;-90
2021/11/19 03:54:00;;;;;;;;;;;;;;;;;;5090325;28;19989;-90
2021/11/19 03:56:26;;;;;;;;;;;;;;;;;;5089385;28;19912;-90
2021/11/19 03:58:52;;;;;;;;;;;;;;;;;;5087596;28;19912;-90
2021/11/19 04:01:18;;;;;;;;;;;;;;;;;;5088471;28;20454;-91
2021/11/19 04:03:44;;;;;;;;;;;;;;;;;;5086986;28;19919;-91
2021/11/19 04:06:10;;;;;;;;;;;;;;;;;;5086606;28;19923;-90
2021/11/19 04:08:36;;;;;;;;;;;;;;;;;;5087249;28;21539;-90
2021/11/19 04:11:02;;;;;;;;;;;;;;;;;;5085496;28;19915;-89
2021/11/19 04:13:28;;;;;;;;;;;;;;;;;;5086981;28;19943;-88
2021/11/19 04:15:54;;;;;;;;;;;;;;;;;;5086138;28;19955;-89
2021/11/19 04:18:20;;;;;;;;;;;;;;;;;;5083736;28;19918;-89
2021/11/19 04:20:45;;;;;;;;;;;;;;;;;;5085077;28;19916;-88
2021/11/19 04:23:11;;;;;;;;;;;;;;;;;;5083391;28;20365;-85
2021/11/19 04:25:38;;;;;;;;;;;;;;;;;;5079644;28;19923;-86
2021/11/19 04:28:04;;;;;;;;;;;;;;;;;;5096487;28;19924;-86
2021/11/19 04:30:30;;;;;;;;;;;;;;;;;;5081836;28;19923;-86
2021/11/19 04:32:56;;;;;;;;;;;;;;;;;;5084660;28;19912;-89
2021/11/19 04:35:22;;;;;;;;;;;;;;;;;;5089339;28;19912;-88
2021/11/19 04:37:48;;;;;;;;;;;;;;;;;;5082354;28;20375;-85
2021/11/19 04:40:14;;;;;;;;;;;;;;;;;;5082008;28;19919;-84
2021/11/19 04:42:40;;;;;;;;;;;;;;;;;;5078345;28;19962;-84
2021/11/19 04:45:06;;;;;;;;;;;;;;;;;;5074830;28;19958;-85
2021/11/19 04:47:32;;;;;;;;;;;;;;;;;;5080364;28;20006;-85
2021/11/19 04:49:58;;;;;;;;;;;;;;;;;;5079612;28;19912;-84
2021/11/19 04:52:24;;;;;;;;;;;;;;;;;;5081180;28;20839;-84
2021/11/19 04:54:49;;;;;;;;;;;;;;;;;;5078827;28;19912;-84
2021/11/19 04:57:16;;;;;;;;;;;;;;;;;;5080788;28;19911;-85
2021/11/19 04:59:42;;;;;;;;;;;;;;;;;;5082436;28;20302;-88
2021/11/19 05:02:08;;;;;;;;;;;;;;;;;;5084302;28;20409;-88
2021/11/19 05:04:34;;;;;;;;;;;;;;;;;;5081987;28;19912;-87
2021/11/19 05:07:00;;;;;;;;;;;;;;;;;;5082196;28;19919;-87
2021/11/19 05:09:29;;;;;;;;;;;;;;;;;;5081522;28;19931;-83
2021/11/19 05:11:55;;;;;;;;;;;;;;;;;;5079220;28;20002;-83
2021/11/19 05:14:21;;;;;;;;;;;;;;;;;;5080320;28;19916;-83
2021/11/19 05:16:47;;;;;;;;;;;;;;;;;;5082066;28;20685;-84
2021/11/19 05:19:13;;;;;;;;;;;;;;;;;;5084018;28;19912;-84
2021/11/19 05:21:39;;;;;;;;;;;;;;;;;;5085267;28;19921;-84
2021/11/19 05:24:08;;;;;;;;;;;;;;;;;;5082540;28;20291;-84
2021/11/19 05:26:33;;;;;;;;;;;;;;;;;;5083087;28;20010;-84
2021/11/19 05:28:59;;;;;;;;;;;;;;;;;;5083208;28;20003;-83
2021/11/19 05:31:25;;;;;;;;;;;;;;;;;;5083362;28;19908;-83
2021/11/19 05:33:51;;;;;;;;;;;;;;;;;;5084915;28;19995;-86
2021/11/19 05:36:17;;;;;;;;;;;;;;;;;;5085325;28;20376;-86
2021/11/19 05:38:43;;;;;;;;;;;;;;;;;;5082935;28;19933;-87
2021/11/19 05:41:09;;;;;;;;;;;;;;;;;;5087780;28;19912;-85
2021/11/19 05:43:35;;;;;;;;;;;;;;;;;;5086829;28;20008;-87
2021/11/19 05:46:01;;;;;;;;;;;;;;;;;;5083684;28;19908;-87
2021/11/19 05:48:27;;;;;;;;;;;;;;;;;;5087722;28;19919;-88
2021/11/19 05:50:53;;;;;;;;;;;;;;;;;;5086166;28;20321;-86
2021/11/19 05:53:20;;;;;;;;;;;;;;;;;;5084119;28;19946;-89
2021/11/19 05:55:46;;;;;;;;;;;;;;;;;;5088119;28;19915;-89
2021/11/19 05:58:12;;;;;;;;;;;;;;;;;;5083147;28;19940;-85
2021/11/19 06:00:38;;;;;;;;;;;;;;;;;;5085516;28;19912;-82
2021/11/19 06:03:04;;;;;;;;;;;;;;;;;;5085533;28;20003;-84
2021/11/19 06:05:30;;;;;;;;;;;;;;;;;;5084561;28;19912;-82
2021/11/19 06:07:56;;;;;;;;;;;;;;;;;;5079148;28;20233;-85
2021/11/19 06:10:27;;;;;;;;;;;;;;;;;;5090654;28;19964;-85
2021/11/19 06:12:53;;;;;;;;;;;;;;;;;;5081335;28;19912;-89
2021/11/19 06:15:19;;;;;;;;;;;;;;;;;;5083602;28;20379;-89
2021/11/19 06:17:45;;;;;;;;;;;;;;;;;;5078732;28;19923;-80
2021/11/19 06:20:11;;;;;;;;;;;;;;;;;;5079784;28;19912;-81
2021/11/19 06:22:37;;;;;;;;;;;;;;;;;;5085154;28;19964;-90
2021/11/19 06:25:02;;;;;;;;;;;;;;;;;;5090037;28;19923;-86
2021/11/19 06:27:28;;;;;;;;;;;;;;;;;;5086311;28;19911;-85
2021/11/19 06:29:54;;;;;;;;;;;;;;;;;;5083255;28;19977;-85
2021/11/19 06:32:20;;;;;;;;;;;;;;;;;;5084256;28;19919;-84
2021/11/19 06:34:46;;;;;;;;;;;;;;;;;;5083052;28;19916;-84
2021/11/19 06:37:12;;;;;;;;;;;;;;;;;;5082469;28;19919;-85
2021/11/19 06:39:41;;;;;;;;;;;;;;;;;;5084977;28;19923;-84
2021/11/19 06:42:07;;;;;;;;;;;;;;;;;;5096347;28;20284;-84
2021/11/19 06:44:33;;;;;;;;;;;;;;;;;;5080727;28;19912;-83
2021/11/19 06:46:59;;;;;;;;;;;;;;;;;;5082116;28;19923;-85
2021/11/19 06:49:25;;;;;;;;;;;;;;;;;;5079829;28;19920;-84
2021/11/19 06:51:51;;;;;;;;;;;;;;;;;;5080570;28;19916;-82
2021/11/19 06:54:17;;;;;;;;;;;;;;;;;;5078146;28;19962;-84
2021/11/19 06:56:43;;;;;;;;;;;;;;;;;;5091620;28;19908;-84
2021/11/19 06:59:09;;;;;;;;;;;;;;;;;;5076960;28;19913;-84
2021/11/19 07:01:35;;;;;;;;;;;;;;;;;;5072243;28;19912;-85
2021/11/19 07:04:00;;;;;;;;;;;;;;;;;;5068458;28;20398;-83
2021/11/19 07:06:26;;;;;;;;;;;;;;;;;;5065701;28;19951;-84
2021/11/19 07:08:52;;;;;;;;;;;;;;;;;;5078037;28;20022;-84
2021/11/19 07:11:18;;;;;;;;;;;;;;;;;;5077591;28;19947;-84
2021/11/19 07:13:48;;;;;;;;;;;;;;;;;;5081787;28;20198;-85
2021/11/19 07:16:14;;;;;;;;;;;;;;;;;;5069844;28;19983;-82
2021/11/19 07:18:40;;;;;;;;;;;;;;;;;;5081128;28;20441;-79
2021/11/19 07:21:06;;;;;;;;;;;;;;;;;;5079416;28;20392;-83
2021/11/19 07:23:32;;;;;;;;;;;;;;;;;;5079041;28;20409;-77
2021/11/19 07:25:58;;;;;;;;;;;;;;;;;;5079161;28;19951;-77
2021/11/19 07:28:24;;;;;;;;;;;;;;;;;;5067440;28;19965;-78
2021/11/19 07:30:51;;;;;;;;;;;;;;;;;;5083072;28;19956;-83
2021/11/19 07:33:17;;;;;;;;;;;;;;;;;;5070313;28;19912;-84
2021/11/19 07:35:43;;;;;;;;;;;;;;;;;;5076153;28;19915;-83
2021/11/19 07:38:09;;;;;;;;;;;;;;;;;;5077991;28;19912;-84
2021/11/19 07:40:35;;;;;;;;;;;;;;;;;;5067522;28;20408;-85
2021/11/19 07:43:01;;;;;;;;;;;;;;;;;;5081625;28;19908;-85
2021/11/19 07:45:33;;;;;;;;;;;;;;;;;;5068299;28;19944;-85
2021/11/19 07:47:59;;;;;;;;;;;;;;;;;;5077919;28;19920;-82
2021/11/19 07:50:24;;;;;;;;;;;;;;;;;;5078431;28;19923;-83
2021/11/19 07:52:50;;;;;;;;;;;;;;;;;;5070645;28;20381;-85
2021/11/19 07:55:17;;;;;;;;;;;;;;;;;;5070275;28;19971;-84
2021/11/19 07:57:42;;;;;;;;;;;;;;;;;;5080332;28;19920;-82
2021/11/19 08:00:09;;;;;;;;;;;;;;;;;;5067913;28;19912;-82
2021/11/19 08:02:34;;;;;;;;;;;;;;;;;;5074627;28;19938;-82
2021/11/19 08:05:00;;;;;;;;;;;;;;;;;;5077731;28;19959;-81
2021/11/19 08:07:26;;;;;;;;;;;;;;;;;;5079591;28;20023;-81
2021/11/19 08:09:53;;;;;;;;;;;;;;;;;;5079671;28;19924;-81
2021/11/19 08:12:18;;;;;;;;;;;;;;;;;;5080590;28;19919;-81
2021/11/19 08:14:44;;;;;;;;;;;;;;;;;;5078602;28;20622;-81
2021/11/19 08:17:10;;;;;;;;;;;;;;;;;;5083312;28;19923;-81
2021/11/19 08:19:43;;;;;;;;;;;;;;;;;;5067272;28;19915;-82
2021/11/19 08:22:09;;;;;;;;;;;;;;;;;;5066984;28;19924;-81
2021/11/19 08:24:35;;;;;;;;;;;;;;;;;;5081140;28;19915;-82
2021/11/19 08:27:01;;;;;;;;;;;;;;;;;;5078191;28;19912;-81
2021/11/19 08:29:27;;;;;;;;;;;;;;;;;;5077506;28;19920;-81
2021/11/19 08:31:54;;;;;;;;;;;;;;;;;;5077752;28;19948;-81
2021/11/19 08:34:19;;;;;;;;;;;;;;;;;;5081033;28;19912;-81
2021/11/19 08:36:45;;;;;;;;;;;;;;;;;;5080353;28;20434;-81
2021/11/19 08:39:11;;;;;;;;;;;;;;;;;;5079026;28;19908;-81
2021/11/19 08:41:37;;;;;;;;;;;;;;;;;;5077530;28;20434;-81
2021/11/19 08:44:05;;;;;;;;;;;;;;;;;;5077071;28;19919;-81
2021/11/19 08:46:31;;;;;;;;;;;;;;;;;;5078581;28;19917;-82
2021/11/19 08:48:57;;;;;;;;;;;;;;;;;;5080859;28;19924;-81
2021/11/19 08:51:23;;;;;;;;;;;;;;;;;;5082628;28;19908;-82
2021/11/19 08:53:49;;;;;;;;;;;;;;;;;;5075723;28;19913;-81
2021/11/19 08:56:15;;;;;;;;;;;;;;;;;;5074774;28;19912;-81
2021/11/19 08:58:41;;;;;;;;;;;;;;;;;;5081054;28;19939;-81
2021/11/19 09:01:07;;;;;;;;;;;;;;;;;;5084773;28;19955;-82
2021/11/19 09:03:34;;;;;;;;;;;;;;;;;;5083955;28;20095;-81
2021/11/19 09:06:00;;;;;;;;;;;;;;;;;;5070604;28;19912;-81
2021/11/19 09:08:26;;;;;;;;;;;;;;;;;;5076241;28;19923;-81
2021/11/19 09:10:52;;;;;;;;;;;;;;;;;;5084326;28;20078;-81
2021/11/19 09:13:18;;;;;;;;;;;;;;;;;;5069998;28;19916;-82
2021/11/19 09:15:44;;;;;;;;;;;;;;;;;;5069275;28;19908;-80
2021/11/19 09:18:10;;;;;;;;;;;;;;;;;;5082379;28;20103;-81
2021/11/19 09:20:37;;;;;;;;;;;;;;;;;;5081299;28;19931;-82
2021/11/19 09:23:03;;;;;;;;;;;;;;;;;;5082442;28;19920;-81
2021/11/19 09:25:29;;;;;;;;;;;;;;;;;;5072090;28;19912;-81
2021/11/19 09:27:55;;;;;;;;;;;;;;;;;;5069272;28;19923;-81
2021/11/19 09:30:22;;;;;;;;;;;;;;;;;;5069200;28;19918;-81
2021/11/19 09:32:48;;;;;;;;;;;;;;;;;;5078537;28;19911;-81
2021/11/19 09:35:14;;;;;;;;;;;;;;;;;;5080982;28;19912;-81
2021/11/19 09:37:40;;;;;;;;;;;;;;;;;;5081240;28;19916;-82
2021/11/19 09:40:06;;;;;;;;;;;;;;;;;;5068471;28;19935;-81
2021/11/19 09:42:32;;;;;;;;;;;;;;;;;;5082534;28;20058;-81
2021/11/19 09:44:58;;;;;;;;;;;;;;;;;;5073964;28;20341;-81
2021/11/19 09:47:24;;;;;;;;;;;;;;;;;;5074835;28;19969;-81
2021/11/19 09:49:50;;;;;;;;;;;;;;;;;;5080516;28;20006;-81
2021/11/19 09:52:16;;;;;;;;;;;;;;;;;;5084248;28;20050;-81
2021/11/19 09:54:42;;;;;;;;;;;;;;;;;;5083347;28;19965;-81
2021/11/19 09:57:07;;;;;;;;;;;;;;;;;;5081384;28;20027;-81
2021/11/19 09:59:33;;;;;;;;;;;;;;;;;;5080098;28;19908;-81
2021/11/19 10:01:59;;;;;;;;;;;;;;;;;;5081824;28;19919;-81
2021/11/19 10:04:25;;;;;;;;;;;;;;;;;;5070300;28;20500;-81
2021/11/19 10:06:51;;;;;;;;;;;;;;;;;;5066998;28;19915;-81
2021/11/19 10:09:17;;;;;;;;;;;;;;;;;;5085232;28;19955;-81
2021/11/19 10:11:43;;;;;;;;;;;;;;;;;;5075743;28;20694;-81
2021/11/19 10:14:09;;;;;;;;;;;;;;;;;;5073063;28;19958;-81
2021/11/19 10:16:35;;;;;;;;;;;;;;;;;;5068719;28;20007;-81
2021/11/19 10:19:01;;;;;;;;;;;;;;;;;;5083731;28;19935;-81
2021/11/19 10:21:27;;;;;;;;;;;;;;;;;;5066215;28;20402;-81
2021/11/19 10:23:52;;;;;;;;;;;;;;;;;;5075996;28;20383;-81
2021/11/19 10:26:18;;;;;;;;;;;;;;;;;;5076131;28;20473;-81
2021/11/19 10:28:46;;;;;;;;;;;;;;;;;;5068586;28;20376;-81
2021/11/19 10:31:11;;;;;;;;;;;;;;;;;;5083675;28;19919;-81
2021/11/19 10:33:37;;;;;;;;;;;;;;;;;;5080858;28;19935;-81
2021/11/19 10:36:03;;;;;;;;;;;;;;;;;;5079935;28;19918;-81
2021/11/19 10:38:29;;;;;;;;;;;;;;;;;;5077082;28;20398;-81
2021/11/19 10:40:55;;;;;;;;;;;;;;;;;;5070146;28;19966;-81
2021/11/19 10:43:21;;;;;;;;;;;;;;;;;;5081878;28;19912;-81
2021/11/19 10:45:47;;;;;;;;;;;;;;;;;;5080493;28;19915;-81
2021/11/19 10:48:13;;;;;;;;;;;;;;;;;;5080596;28;19963;-81
2021/11/19 10:50:43;;;;;;;;;;;;;;;;;;5079429;28;19911;-81
2021/11/19 10:53:09;;;;;;;;;;;;;;;;;;5079303;28;20490;-81
2021/11/19 10:55:38;;;;;;;;;;;;;;;;;;5080046;28;19919;-81
2021/11/19 10:58:04;;;;;;;;;;;;;;;;;;5080680;28;19912;-81
2021/11/19 11:00:30;;;;;;;;;;;;;;;;;;5068209;28;20021;-81
2021/11/19 11:02:56;;;;;;;;;;;;;;;;;;5077719;28;19996;-81
2021/11/19 11:05:22;;;;;;;;;;;;;;;;;;5078816;28;19945;-81
2021/11/19 11:07:48;;;;;;;;;;;;;;;;;;5078902;28;19927;-81
2021/11/19 11:10:14;;;;;;;;;;;;;;;;;;5082039;28;19923;-81
2021/11/19 11:12:40;;;;;;;;;;;;;;;;;;5079868;28;19951;-81
2021/11/19 11:15:06;;;;;;;;;;;;;;;;;;5070253;28;19943;-81
2021/11/19 11:17:33;;;;;;;;;;;;;;;;;;5074496;28;19994;-81
2021/11/19 11:19:59;;;;;;;;;;;;;;;;;;5078685;28;19919;-82
2021/11/19 11:22:25;;;;;;;;;;;;;;;;;;5080533;28;19920;-81
2021/11/19 11:24:51;;;;;;;;;;;;;;;;;;5081531;28;19907;-81
2021/11/19 11:27:17;;;;;;;;;;;;;;;;;;5069325;28;19986;-81
2021/11/19 11:29:46;;;;;;;;;;;;;;;;;;5075490;28;19924;-81
2021/11/19 11:32:12;;;;;;;;;;;;;;;;;;5077725;28;19916;-81
2021/11/19 11:34:42;;;;;;;;;;;;;;;;;;5078875;28;19927;-82
2021/11/19 11:37:08;;;;;;;;;;;;;;;;;;5066478;28;20370;-81
2021/11/19 11:39:34;;;;;;;;;;;;;;;;;;5080638;28;20046;-82
2021/11/19 11:42:00;;;;;;;;;;;;;;;;;;5078081;28;19968;-81
2021/11/19 11:44:26;;;;;;;;;;;;;;;;;;5077734;28;19927;-82
2021/11/19 11:46:53;;;;;;;;;;;;;;;;;;5077750;28;20079;-82
2021/11/19 11:49:20;;;;;;;;;;;;;;;;;;5070073;28;19920;-81
2021/11/19 11:51:46;;;;;;;;;;;;;;;;;;5065383;28;19919;-82
2021/11/19 11:54:12;;;;;;;;;;;;;;;;;;5069335;28;19951;-81
2021/11/19 11:56:40;;;;;;;;;;;;;;;;;;5074181;28;20501;-82
2021/11/19 11:59:06;;;;;;;;;;;;;;;;;;5077822;28;20003;-82
2021/11/19 12:01:32;;;;;;;;;;;;;;;;;;5079202;28;20019;-82
2021/11/19 12:03:58;;;;;;;;;;;;;;;;;;5079861;28;20386;-82
2021/11/19 12:06:24;;;;;;;;;;;;;;;;;;5064661;28;19908;-83
2021/11/19 12:08:53;;;;;;;;;;;;;;;;;;5076206;28;20453;-81
2021/11/19 12:11:19;;;;;;;;;;;;;;;;;;5077889;28;19941;-82
2021/11/19 12:13:45;;;;;;;;;;;;;;;;;;5077636;28;19916;-82
2021/11/19 12:16:11;;;;;;;;;;;;;;;;;;5081036;28;19966;-82
2021/11/19 12:18:37;;;;;;;;;;;;;;;;;;5078455;28;20352;-81
2021/11/19 12:21:03;;;;;;;;;;;;;;;;;;5078256;28;19912;-82
2021/11/19 12:23:29;;;;;;;;;;;;;;;;;;5078143;28;19965;-83
2021/11/19 12:25:55;;;;;;;;;;;;;;;;;;5080685;28;19980;-82
2021/11/19 12:28:21;;;;;;;;;;;;;;;;;;5066936;28;19916;-83
2021/11/19 12:30:47;;;;;;;;;;;;;;;;;;5081324;28;19914;-83
2021/11/19 12:33:14;;;;;;;;;;;;;;;;;;5073823;28;20413;-82
2021/11/19 12:35:40;;;;;;;;;;;;;;;;;;5069528;28;19912;-82
2021/11/19 12:38:05;;;;;;;;;;;;;;;;;;5070105;28;19908;-82
2021/11/19 12:40:31;;;;;;;;;;;;;;;;;;5079572;28;19919;-83
2021/11/19 12:42:57;;;;;;;;;;;;;;;;;;5079958;28;19912;-82
2021/11/19 12:45:23;;;;;;;;;;;;;;;;;;5076702;28;19916;-83
2021/11/19 12:47:49;;;;;;;;;;;;;;;;;;5075758;28;19916;-82
2021/11/19 12:50:15;;;;;;;;;;;;;;;;;;5077761;28;19923;-82
2021/11/19 12:52:41;;;;;;;;;;;;;;;;;;5077989;28;19925;-82
2021/11/19 12:55:07;;;;;;;;;;;;;;;;;;5066161;28;19966;-82
2021/11/19 12:57:33;;;;;;;;;;;;;;;;;;5079544;28;19957;-82
2021/11/19 12:59:59;;;;;;;;;;;;;;;;;;5069677;28;20767;-83
2021/11/19 13:02:26;;;;;;;;;;;;;;;;;;5072549;28;19974;-83
2021/11/19 13:04:52;;;;;;;;;;;;;;;;;;5078012;28;19999;-83
2021/11/19 13:07:18;;;;;;;;;;;;;;;;;;5079959;28;20007;-82
2021/11/19 13:09:44;;;;;;;;;;;;;;;;;;5066958;28;20792;-83
2021/11/19 13:12:10;;;;;;;;;;;;;;;;;;5078093;28;20468;-82
2021/11/19 13:14:36;;;;;;;;;;;;;;;;;;5074023;28;19916;-83
2021/11/19 13:17:02;;;;;;;;;;;;;;;;;;5068084;28;20000;-83
2021/11/19 13:19:28;;;;;;;;;;;;;;;;;;5079002;28;19912;-83
2021/11/19 13:21:54;;;;;;;;;;;;;;;;;;5080033;28;19927;-83
2021/11/19 13:24:20;;;;;;;;;;;;;;;;;;5079848;28;19916;-83
2021/11/19 13:26:46;;;;;;;;;;;;;;;;;;5077658;28;19977;-83
2021/11/19 13:29:12;;;;;;;;;;;;;;;;;;5077737;28;19989;-83
2021/11/19 13:31:38;;;;;;;;;;;;;;;;;;5078483;28;19908;-83
2021/11/19 13:34:04;;;;;;;;;;;;;;;;;;5080004;28;19962;-83
2021/11/19 13:36:30;;;;;;;;;;;;;;;;;;5079820;28;19939;-82
2021/11/19 13:38:56;;;;;;;;;;;;;;;;;;5073699;28;19959;-83
2021/11/19 13:41:22;;;;;;;;;;;;;;;;;;5080170;28;20816;-83
2021/11/19 13:43:47;;;;;;;;;;;;;;;;;;5082332;28;20725;-82
2021/11/19 13:46:13;;;;;;;;;;;;;;;;;;5082711;28;20003;-83
2021/11/19 13:48:39;;;;;;;;;;;;;;;;;;5081797;28;19916;-83
2021/11/19 13:51:05;;;;;;;;;;;;;;;;;;5077546;28;19916;-83
2021/11/19 13:53:35;;;;;;;;;;;;;;;;;;5070551;28;19916;-83
2021/11/19 13:56:01;;;;;;;;;;;;;;;;;;5068699;28;20375;-83
2021/11/19 13:58:27;;;;;;;;;;;;;;;;;;5069635;28;19922;-82
2021/11/19 14:00:53;;;;;;;;;;;;;;;;;;5072018;28;19908;-82
2021/11/19 14:03:19;;;;;;;;;;;;;;;;;;5071328;28;19912;-83
2021/11/19 14:05:47;;;;;;;;;;;;;;;;;;5069050;28;19912;-83
2021/11/19 14:08:14;;;;;;;;;;;;;;;;;;5067676;28;19920;-82
2021/11/19 14:10:40;;;;;;;;;;;;;;;;;;5066774;28;19912;-83
2021/11/19 14:13:06;;;;;;;;;;;;;;;;;;5066497;28;19919;-82
2021/11/19 14:15:32;;;;;;;;;;;;;;;;;;5070575;28;19915;-83
2021/11/19 14:17:58;;;;;;;;;;;;;;;;;;5073205;28;19911;-83
2021/11/19 14:23:08;;;;;;;;;;;;;;;;;;5067733;28;19931;-83
2021/11/19 14:25:34;;;;;;;;;;;;;;;;;;5081606;28;19912;-82
2021/11/19 14:28:02;;;;;;;;;;;;;;;;;;5067361;28;19927;-83
2021/11/19 14:30:31;;;;;;;;;;;;;;;;;;5067318;28;20547;-83
2021/11/19 14:32:57;;;;;;;;;;;;;;;;;;5070569;28;19912;-82
2021/11/19 14:35:23;;;;;;;;;;;;;;;;;;5067161;28;19923;-83
2021/11/19 14:37:49;;;;;;;;;;;;;;;;;;5070230;28;19912;-83
2021/11/19 14:40:15;;;;;;;;;;;;;;;;;;5082484;28;19931;-82
2021/11/19 14:42:40;;;;;;;;;;;;;;;;;;5067657;28;19965;-83
2021/11/19 14:45:07;;;;;;;;;;;;;;;;;;5066492;28;20005;-83
2021/11/19 14:47:37;;;;;;;;;;;;;;;;;;5068790;28;19915;-83
2021/11/19 14:50:09;;;;;;;;;;;;;;;;;;5069297;28;20019;-82
2021/11/19 14:52:37;;;;;;;;;;;;;;;;;;5070834;28;19912;-83
2021/11/19 14:55:03;;;;;;;;;;;;;;;;;;5066426;28;20023;-82
2021/11/19 14:57:29;;;;;;;;;;;;;;;;;;5071342;28;20031;-83
2021/11/19 14:59:55;;;;;;;;;;;;;;;;;;5068635;28;20429;-83
2021/11/19 15:02:21;;;;;;;;;;;;;;;;;;5068676;28;19969;-83
2021/11/19 15:04:47;;;;;;;;;;;;;;;;;;5070583;28;20391;-83
2021/11/19 15:07:13;;;;;;;;;;;;;;;;;;5068959;28;19963;-83
2021/11/19 15:09:39;;;;;;;;;;;;;;;;;;5065517;28;19916;-82
2021/11/19 15:12:05;;;;;;;;;;;;;;;;;;5067881;28;19912;-82
2021/11/19 15:14:31;;;;;;;;;;;;;;;;;;5070800;28;19913;-82
2021/11/19 15:16:57;;;;;;;;;;;;;;;;;;5067540;28;19919;-82
2021/11/19 15:19:23;;;;;;;;;;;;;;;;;;5067406;28;20769;-82
2021/11/19 15:21:49;;;;;;;;;;;;;;;;;;5065619;28;20387;-82
2021/11/19 15:24:15;;;;;;;;;;;;;;;;;;5068101;28;20029;-82
2021/11/19 15:26:41;;;;;;;;;;;;;;;;;;5067835;28;19919;-82
2021/11/19 15:29:07;;;;;;;;;;;;;;;;;;5068225;28;20363;-82
2021/11/19 15:31:33;;;;;;;;;;;;;;;;;;5069542;28;19924;-82
2021/11/19 15:33:59;;;;;;;;;;;;;;;;;;5068009;28;19912;-82
2021/11/19 15:36:25;;;;;;;;;;;;;;;;;;5074102;28;19908;-82
2021/11/19 15:38:51;;;;;;;;;;;;;;;;;;5068571;28;20273;-82
2021/11/19 15:41:17;;;;;;;;;;;;;;;;;;5077024;28;20364;-82
2021/11/19 15:43:43;;;;;;;;;;;;;;;;;;5070690;28;19918;-83
2021/11/19 15:46:09;;;;;;;;;;;;;;;;;;5065910;28;19912;-82
2021/11/19 15:48:34;;;;;;;;;;;;;;;;;;5080177;28;20371;-82
2021/11/19 15:51:00;;;;;;;;;;;;;;;;;;5071908;28;19978;-82
2021/11/19 15:53:26;;;;;;;;;;;;;;;;;;5068808;28;20012;-82
2021/11/19 15:55:52;;;;;;;;;;;;;;;;;;5073210;28;20394;-82
2021/11/19 15:58:18;;;;;;;;;;;;;;;;;;5070270;28;20010;-82
2021/11/19 16:00:44;;;;;;;;;;;;;;;;;;5069054;28;20366;-81
2021/11/19 16:03:10;;;;;;;;;;;;;;;;;;5069970;28;19957;-81
2021/11/19 16:05:36;;;;;;;;;;;;;;;;;;5074483;28;19908;-81
2021/11/19 16:08:02;;;;;;;;;;;;;;;;;;5073415;28;20077;-82
2021/11/19 16:10:28;;;;;;;;;;;;;;;;;;5066470;28;20450;-82
2021/11/19 16:12:54;;;;;;;;;;;;;;;;;;5067030;28;19912;-82
2021/11/19 16:15:19;;;;;;;;;;;;;;;;;;5080376;28;19912;-82
2021/11/19 16:17:45;;;;;;;;;;;;;;;;;;5077682;28;19982;-81
2021/11/19 16:20:11;;;;;;;;;;;;;;;;;;5077951;28;20400;-82
2021/11/19 16:22:37;;;;;;;;;;;;;;;;;;5078862;28;19920;-81
2021/11/19 16:25:03;;;;;;;;;;;;;;;;;;5064042;28;19912;-81
2021/11/19 16:27:35;;;;;;;;;;;;;;;;;;5069024;28;20327;-81
2021/11/19 16:30:00;;;;;;;;;;;;;;;;;;5065558;28;20608;-81
2021/11/19 16:32:26;;;;;;;;;;;;;;;;;;5065935;28;19919;-81
2021/11/19 16:34:52;;;;;;;;;;;;;;;;;;5065816;28;19981;-81
2021/11/19 16:37:18;;;;;;;;;;;;;;;;;;5066103;28;20006;-81
2021/11/19 16:39:44;;;;;;;;;;;;;;;;;;5078395;28;20054;-82